sensor_id;sensor_type;location;lat;lon;timestamp;P1;durP1;ratioP1;P2;durP2;ratioP2
51485;SDS011;37565;51.352;6.412;2022-07-17T00:00:49;1.70;;;0.50;;
51485;SDS011;37565;51.352;6.412;2022-07-17T00:03:17;4.65;;;0.90;;
51485;SDS011;37565;51.352;6.412;2022-07-17T00:05:47;0.90;;;0.57;;
51485;SDS011;37565;51.352;6.412;2022-07-17T00:08:16;2.85;;;0.70;;
51485;SDS011;37565;51.352;6.412;2022-07-17T00:10:44;1.35;;;0.63;;
51485;SDS011;37565;51.352;6.412;2022-07-17T00:13:12;3.03;;;0.60;;
51485;SDS011;37565;51.352;6.412;2022-07-17T00:15:40;1.42;;;0.65;;
51485;SDS011;37565;51.352;6.412;2022-07-17T00:18:08;0.68;;;0.50;;
51485;SDS011;37565;51.352;6.412;2022-07-17T00:20:36;2.05;;;0.50;;
51485;SDS011;37565;51.352;6.412;2022-07-17T00:23:06;2.35;;;0.60;;
51485;SDS011;37565;51.352;6.412;2022-07-17T00:25:37;0.95;;;0.57;;
51485;SDS011;37565;51.352;6.412;2022-07-17T00:28:06;0.77;;;0.60;;
51485;SDS011;37565;51.352;6.412;2022-07-17T00:30:34;1.45;;;0.60;;
51485;SDS011;37565;51.352;6.412;2022-07-17T00:33:04;0.88;;;0.63;;
51485;SDS011;37565;51.352;6.412;2022-07-17T00:35:32;1.95;;;0.60;;
51485;SDS011;37565;51.352;6.412;2022-07-17T00:38:00;1.15;;;0.60;;
51485;SDS011;37565;51.352;6.412;2022-07-17T00:40:30;2.22;;;0.60;;
51485;SDS011;37565;51.352;6.412;2022-07-17T00:42:58;1.30;;;0.55;;
51485;SDS011;37565;51.352;6.412;2022-07-17T00:45:27;1.42;;;0.60;;
51485;SDS011;37565;51.352;6.412;2022-07-17T00:47:57;2.33;;;0.60;;
51485;SDS011;37565;51.352;6.412;2022-07-17T00:50:28;1.42;;;0.60;;
51485;SDS011;37565;51.352;6.412;2022-07-17T00:52:58;1.38;;;0.60;;
51485;SDS011;37565;51.352;6.412;2022-07-17T00:55:26;0.70;;;0.52;;
51485;SDS011;37565;51.352;6.412;2022-07-17T00:58:16;3.22;;;0.60;;
51485;SDS011;37565;51.352;6.412;2022-07-17T01:00:47;2.70;;;0.65;;
51485;SDS011;37565;51.352;6.412;2022-07-17T01:03:16;0.80;;;0.55;;
51485;SDS011;37565;51.352;6.412;2022-07-17T01:05:44;4.10;;;0.70;;
51485;SDS011;37565;51.352;6.412;2022-07-17T01:08:13;0.75;;;0.35;;
51485;SDS011;37565;51.352;6.412;2022-07-17T01:10:41;1.05;;;0.73;;
51485;SDS011;37565;51.352;6.412;2022-07-17T01:13:09;0.68;;;0.50;;
51485;SDS011;37565;51.352;6.412;2022-07-17T01:15:41;1.05;;;0.60;;
51485;SDS011;37565;51.352;6.412;2022-07-17T01:18:10;1.98;;;0.63;;
51485;SDS011;37565;51.352;6.412;2022-07-17T01:20:41;0.98;;;0.57;;
51485;SDS011;37565;51.352;6.412;2022-07-17T01:23:12;0.80;;;0.60;;
51485;SDS011;37565;51.352;6.412;2022-07-17T01:25:42;1.08;;;0.50;;
51485;SDS011;37565;51.352;6.412;2022-07-17T01:28:10;2.92;;;0.75;;
51485;SDS011;37565;51.352;6.412;2022-07-17T01:30:44;1.13;;;0.47;;
51485;SDS011;37565;51.352;6.412;2022-07-17T01:33:13;1.13;;;0.70;;
51485;SDS011;37565;51.352;6.412;2022-07-17T01:35:42;1.85;;;0.52;;
51485;SDS011;37565;51.352;6.412;2022-07-17T01:38:11;2.15;;;0.63;;
51485;SDS011;37565;51.352;6.412;2022-07-17T01:40:39;1.00;;;0.40;;
51485;SDS011;37565;51.352;6.412;2022-07-17T01:43:07;1.92;;;0.68;;
51485;SDS011;37565;51.352;6.412;2022-07-17T01:45:39;1.38;;;0.55;;
51485;SDS011;37565;51.352;6.412;2022-07-17T01:48:07;2.08;;;0.50;;
51485;SDS011;37565;51.352;6.412;2022-07-17T01:50:35;1.17;;;0.40;;
51485;SDS011;37565;51.352;6.412;2022-07-17T01:53:09;3.03;;;0.57;;
51485;SDS011;37565;51.352;6.412;2022-07-17T01:55:38;0.47;;;0.40;;
51485;SDS011;37565;51.352;6.412;2022-07-17T01:58:06;0.98;;;0.40;;
51485;SDS011;37565;51.352;6.412;2022-07-17T02:00:35;0.38;;;0.32;;
51485;SDS011;37565;51.352;6.412;2022-07-17T02:03:03;2.28;;;0.68;;
51485;SDS011;37565;51.352;6.412;2022-07-17T02:05:31;1.40;;;0.52;;
51485;SDS011;37565;51.352;6.412;2022-07-17T02:07:59;0.30;;;0.30;;
51485;SDS011;37565;51.352;6.412;2022-07-17T02:10:27;0.70;;;0.50;;
51485;SDS011;37565;51.352;6.412;2022-07-17T02:12:56;1.40;;;0.50;;
51485;SDS011;37565;51.352;6.412;2022-07-17T02:15:24;0.90;;;0.60;;
51485;SDS011;37565;51.352;6.412;2022-07-17T02:17:53;0.63;;;0.47;;
51485;SDS011;37565;51.352;6.412;2022-07-17T02:20:21;0.85;;;0.60;;
51485;SDS011;37565;51.352;6.412;2022-07-17T02:22:49;1.30;;;0.45;;
51485;SDS011;37565;51.352;6.412;2022-07-17T02:25:17;1.10;;;0.70;;
51485;SDS011;37565;51.352;6.412;2022-07-17T02:27:45;1.13;;;0.55;;
51485;SDS011;37565;51.352;6.412;2022-07-17T02:30:16;0.80;;;0.45;;
51485;SDS011;37565;51.352;6.412;2022-07-17T02:32:45;2.05;;;0.50;;
51485;SDS011;37565;51.352;6.412;2022-07-17T02:35:13;0.93;;;0.52;;
51485;SDS011;37565;51.352;6.412;2022-07-17T02:37:42;1.75;;;0.57;;
51485;SDS011;37565;51.352;6.412;2022-07-17T02:40:12;0.95;;;0.60;;
51485;SDS011;37565;51.352;6.412;2022-07-17T02:42:40;1.20;;;0.40;;
51485;SDS011;37565;51.352;6.412;2022-07-17T02:45:08;0.68;;;0.50;;
51485;SDS011;37565;51.352;6.412;2022-07-17T02:47:38;0.73;;;0.40;;
51485;SDS011;37565;51.352;6.412;2022-07-17T02:50:07;0.47;;;0.20;;
51485;SDS011;37565;51.352;6.412;2022-07-17T02:52:36;0.60;;;0.60;;
51485;SDS011;37565;51.352;6.412;2022-07-17T02:55:05;0.68;;;0.40;;
51485;SDS011;37565;51.352;6.412;2022-07-17T02:57:34;1.75;;;0.50;;
51485;SDS011;37565;51.352;6.412;2022-07-17T03:00:03;0.65;;;0.38;;
51485;SDS011;37565;51.352;6.412;2022-07-17T03:02:33;0.95;;;0.45;;
51485;SDS011;37565;51.352;6.412;2022-07-17T03:05:02;2.13;;;0.60;;
51485;SDS011;37565;51.352;6.412;2022-07-17T03:07:31;1.08;;;0.60;;
51485;SDS011;37565;51.352;6.412;2022-07-17T03:09:59;1.20;;;0.60;;
51485;SDS011;37565;51.352;6.412;2022-07-17T03:12:27;0.73;;;0.52;;
51485;SDS011;37565;51.352;6.412;2022-07-17T03:14:55;0.60;;;0.60;;
51485;SDS011;37565;51.352;6.412;2022-07-17T03:17:23;0.57;;;0.50;;
51485;SDS011;37565;51.352;6.412;2022-07-17T03:19:51;0.85;;;0.40;;
51485;SDS011;37565;51.352;6.412;2022-07-17T03:22:21;2.17;;;0.65;;
51485;SDS011;37565;51.352;6.412;2022-07-17T03:24:49;0.50;;;0.40;;
51485;SDS011;37565;51.352;6.412;2022-07-17T03:27:17;1.20;;;0.60;;
51485;SDS011;37565;51.352;6.412;2022-07-17T03:29:45;0.50;;;0.40;;
51485;SDS011;37565;51.352;6.412;2022-07-17T03:32:16;0.68;;;0.50;;
51485;SDS011;37565;51.352;6.412;2022-07-17T03:34:44;1.50;;;0.70;;
51485;SDS011;37565;51.352;6.412;2022-07-17T03:37:12;0.60;;;0.60;;
51485;SDS011;37565;51.352;6.412;2022-07-17T03:39:41;0.95;;;0.57;;
51485;SDS011;37565;51.352;6.412;2022-07-17T03:42:09;1.40;;;0.52;;
51485;SDS011;37565;51.352;6.412;2022-07-17T03:44:38;1.58;;;0.45;;
51485;SDS011;37565;51.352;6.412;2022-07-17T03:47:06;0.50;;;0.50;;
51485;SDS011;37565;51.352;6.412;2022-07-17T03:49:34;0.50;;;0.40;;
51485;SDS011;37565;51.352;6.412;2022-07-17T03:52:02;0.68;;;0.50;;
51485;SDS011;37565;51.352;6.412;2022-07-17T03:54:30;1.17;;;0.70;;
51485;SDS011;37565;51.352;6.412;2022-07-17T03:56:59;0.70;;;0.65;;
51485;SDS011;37565;51.352;6.412;2022-07-17T03:59:27;0.95;;;0.60;;
51485;SDS011;37565;51.352;6.412;2022-07-17T04:01:55;1.45;;;0.38;;
51485;SDS011;37565;51.352;6.412;2022-07-17T04:04:23;1.58;;;0.60;;
51485;SDS011;37565;51.352;6.412;2022-07-17T04:06:51;0.57;;;0.40;;
51485;SDS011;37565;51.352;6.412;2022-07-17T04:09:19;1.67;;;0.60;;
51485;SDS011;37565;51.352;6.412;2022-07-17T04:11:47;1.10;;;0.55;;
51485;SDS011;37565;51.352;6.412;2022-07-17T04:14:17;0.40;;;0.40;;
51485;SDS011;37565;51.352;6.412;2022-07-17T04:16:45;0.60;;;0.40;;
51485;SDS011;37565;51.352;6.412;2022-07-17T04:19:13;0.38;;;0.38;;
51485;SDS011;37565;51.352;6.412;2022-07-17T04:21:41;0.73;;;0.45;;
51485;SDS011;37565;51.352;6.412;2022-07-17T04:24:09;1.02;;;0.50;;
51485;SDS011;37565;51.352;6.412;2022-07-17T04:26:37;0.68;;;0.50;;
51485;SDS011;37565;51.352;6.412;2022-07-17T04:29:05;0.30;;;0.30;;
51485;SDS011;37565;51.352;6.412;2022-07-17T04:31:36;0.22;;;0.22;;
51485;SDS011;37565;51.352;6.412;2022-07-17T04:34:04;0.40;;;0.30;;
51485;SDS011;37565;51.352;6.412;2022-07-17T04:36:32;0.43;;;0.40;;
51485;SDS011;37565;51.352;6.412;2022-07-17T04:39:04;1.33;;;0.47;;
51485;SDS011;37565;51.352;6.412;2022-07-17T04:41:32;0.38;;;0.38;;
51485;SDS011;37565;51.352;6.412;2022-07-17T04:44:00;1.17;;;0.50;;
51485;SDS011;37565;51.352;6.412;2022-07-17T04:46:31;1.20;;;0.50;;
51485;SDS011;37565;51.352;6.412;2022-07-17T04:49:00;0.40;;;0.40;;
51485;SDS011;37565;51.352;6.412;2022-07-17T04:51:28;0.50;;;0.40;;
51485;SDS011;37565;51.352;6.412;2022-07-17T04:53:56;0.65;;;0.50;;
51485;SDS011;37565;51.352;6.412;2022-07-17T04:56:28;0.50;;;0.50;;
51485;SDS011;37565;51.352;6.412;2022-07-17T04:58:58;0.93;;;0.60;;
51485;SDS011;37565;51.352;6.412;2022-07-17T05:01:26;0.77;;;0.50;;
51485;SDS011;37565;51.352;6.412;2022-07-17T05:03:54;1.73;;;0.50;;
51485;SDS011;37565;51.352;6.412;2022-07-17T05:06:23;0.93;;;0.50;;
51485;SDS011;37565;51.352;6.412;2022-07-17T05:08:51;0.40;;;0.40;;
51485;SDS011;37565;51.352;6.412;2022-07-17T05:11:19;0.20;;;0.20;;
51485;SDS011;37565;51.352;6.412;2022-07-17T05:13:47;0.50;;;0.40;;
51485;SDS011;37565;51.352;6.412;2022-07-17T05:16:15;0.57;;;0.57;;
51485;SDS011;37565;51.352;6.412;2022-07-17T05:18:44;1.38;;;0.40;;
51485;SDS011;37565;51.352;6.412;2022-07-17T05:21:12;0.45;;;0.40;;
51485;SDS011;37565;51.352;6.412;2022-07-17T05:23:42;0.68;;;0.50;;
51485;SDS011;37565;51.352;6.412;2022-07-17T05:26:10;0.75;;;0.50;;
51485;SDS011;37565;51.352;6.412;2022-07-17T05:28:38;0.75;;;0.45;;
51485;SDS011;37565;51.352;6.412;2022-07-17T05:31:06;2.13;;;0.55;;
51485;SDS011;37565;51.352;6.412;2022-07-17T05:33:34;1.38;;;0.57;;
51485;SDS011;37565;51.352;6.412;2022-07-17T05:36:04;1.05;;;0.60;;
51485;SDS011;37565;51.352;6.412;2022-07-17T05:38:32;0.50;;;0.50;;
51485;SDS011;37565;51.352;6.412;2022-07-17T05:41:02;0.90;;;0.60;;
51485;SDS011;37565;51.352;6.412;2022-07-17T05:43:30;1.10;;;0.45;;
51485;SDS011;37565;51.352;6.412;2022-07-17T05:46:00;0.60;;;0.40;;
51485;SDS011;37565;51.352;6.412;2022-07-17T05:48:29;0.60;;;0.47;;
51485;SDS011;37565;51.352;6.412;2022-07-17T05:50:58;0.50;;;0.50;;
51485;SDS011;37565;51.352;6.412;2022-07-17T05:53:28;0.43;;;0.40;;
51485;SDS011;37565;51.352;6.412;2022-07-17T05:55:56;0.82;;;0.60;;
51485;SDS011;37565;51.352;6.412;2022-07-17T05:58:26;1.35;;;0.47;;
51485;SDS011;37565;51.352;6.412;2022-07-17T06:00:54;2.05;;;0.60;;
51485;SDS011;37565;51.352;6.412;2022-07-17T06:03:22;1.73;;;0.55;;
51485;SDS011;37565;51.352;6.412;2022-07-17T06:05:50;0.80;;;0.50;;
51485;SDS011;37565;51.352;6.412;2022-07-17T06:08:18;2.20;;;0.57;;
51485;SDS011;37565;51.352;6.412;2022-07-17T06:10:46;0.90;;;0.60;;
51485;SDS011;37565;51.352;6.412;2022-07-17T06:13:14;1.45;;;0.50;;
51485;SDS011;37565;51.352;6.412;2022-07-17T06:15:43;0.63;;;0.43;;
51485;SDS011;37565;51.352;6.412;2022-07-17T06:18:11;0.70;;;0.50;;
51485;SDS011;37565;51.352;6.412;2022-07-17T06:20:41;0.45;;;0.45;;
51485;SDS011;37565;51.352;6.412;2022-07-17T06:23:10;0.85;;;0.43;;
51485;SDS011;37565;51.352;6.412;2022-07-17T06:25:38;0.35;;;0.30;;
51485;SDS011;37565;51.352;6.412;2022-07-17T06:28:06;0.73;;;0.60;;
51485;SDS011;37565;51.352;6.412;2022-07-17T06:30:34;1.48;;;0.40;;
51485;SDS011;37565;51.352;6.412;2022-07-17T06:33:03;0.60;;;0.40;;
51485;SDS011;37565;51.352;6.412;2022-07-17T06:35:31;0.85;;;0.63;;
51485;SDS011;37565;51.352;6.412;2022-07-17T06:38:01;0.60;;;0.30;;
51485;SDS011;37565;51.352;6.412;2022-07-17T06:40:30;0.40;;;0.30;;
51485;SDS011;37565;51.352;6.412;2022-07-17T06:42:58;0.60;;;0.52;;
51485;SDS011;37565;51.352;6.412;2022-07-17T06:45:26;0.60;;;0.45;;
51485;SDS011;37565;51.352;6.412;2022-07-17T06:47:54;0.68;;;0.57;;
51485;SDS011;37565;51.352;6.412;2022-07-17T06:50:23;0.57;;;0.50;;
51485;SDS011;37565;51.352;6.412;2022-07-17T06:52:51;0.57;;;0.40;;
51485;SDS011;37565;51.352;6.412;2022-07-17T06:55:19;0.60;;;0.60;;
51485;SDS011;37565;51.352;6.412;2022-07-17T06:57:47;1.08;;;0.45;;
51485;SDS011;37565;51.352;6.412;2022-07-17T07:00:15;0.88;;;0.50;;
51485;SDS011;37565;51.352;6.412;2022-07-17T07:02:44;0.63;;;0.45;;
51485;SDS011;37565;51.352;6.412;2022-07-17T07:05:13;0.85;;;0.60;;
51485;SDS011;37565;51.352;6.412;2022-07-17T07:07:42;0.43;;;0.40;;
51485;SDS011;37565;51.352;6.412;2022-07-17T07:10:10;1.35;;;0.40;;
51485;SDS011;37565;51.352;6.412;2022-07-17T07:12:38;0.50;;;0.40;;
51485;SDS011;37565;51.352;6.412;2022-07-17T07:15:08;0.73;;;0.40;;
51485;SDS011;37565;51.352;6.412;2022-07-17T07:17:38;0.65;;;0.40;;
51485;SDS011;37565;51.352;6.412;2022-07-17T07:20:07;0.50;;;0.50;;
51485;SDS011;37565;51.352;6.412;2022-07-17T07:22:36;0.40;;;0.40;;
51485;SDS011;37565;51.352;6.412;2022-07-17T07:25:07;0.40;;;0.40;;
51485;SDS011;37565;51.352;6.412;2022-07-17T07:27:35;1.30;;;0.73;;
51485;SDS011;37565;51.352;6.412;2022-07-17T07:30:04;0.32;;;0.32;;
51485;SDS011;37565;51.352;6.412;2022-07-17T07:32:36;1.13;;;0.60;;
51485;SDS011;37565;51.352;6.412;2022-07-17T07:35:04;0.60;;;0.50;;
51485;SDS011;37565;51.352;6.412;2022-07-17T07:37:33;0.52;;;0.50;;
51485;SDS011;37565;51.352;6.412;2022-07-17T07:40:02;1.00;;;0.60;;
51485;SDS011;37565;51.352;6.412;2022-07-17T07:42:35;0.73;;;0.40;;
51485;SDS011;37565;51.352;6.412;2022-07-17T07:45:03;0.52;;;0.35;;
51485;SDS011;37565;51.352;6.412;2022-07-17T07:47:32;0.80;;;0.50;;
51485;SDS011;37565;51.352;6.412;2022-07-17T07:50:00;0.60;;;0.45;;
51485;SDS011;37565;51.352;6.412;2022-07-17T07:52:28;0.73;;;0.50;;
51485;SDS011;37565;51.352;6.412;2022-07-17T07:54:58;0.30;;;0.30;;
51485;SDS011;37565;51.352;6.412;2022-07-17T07:57:26;0.50;;;0.38;;
51485;SDS011;37565;51.352;6.412;2022-07-17T07:59:55;0.35;;;0.35;;
51485;SDS011;37565;51.352;6.412;2022-07-17T08:02:24;0.40;;;0.40;;
51485;SDS011;37565;51.352;6.412;2022-07-17T08:04:52;0.50;;;0.50;;
51485;SDS011;37565;51.352;6.412;2022-07-17T08:07:20;0.50;;;0.40;;
51485;SDS011;37565;51.352;6.412;2022-07-17T08:09:48;0.43;;;0.30;;
51485;SDS011;37565;51.352;6.412;2022-07-17T08:12:16;0.38;;;0.38;;
51485;SDS011;37565;51.352;6.412;2022-07-17T08:15:06;1.33;;;0.60;;
51485;SDS011;37565;51.352;6.412;2022-07-17T08:17:34;1.27;;;0.52;;
51485;SDS011;37565;51.352;6.412;2022-07-17T08:20:04;3.38;;;0.63;;
51485;SDS011;37565;51.352;6.412;2022-07-17T08:22:39;3.20;;;0.68;;
51485;SDS011;37565;51.352;6.412;2022-07-17T08:25:29;3.80;;;1.00;;
51485;SDS011;37565;51.352;6.412;2022-07-17T08:27:57;3.28;;;0.77;;
51485;SDS011;37565;51.352;6.412;2022-07-17T08:30:27;3.47;;;1.30;;
51485;SDS011;37565;51.352;6.412;2022-07-17T08:32:57;3.97;;;0.85;;
51485;SDS011;37565;51.352;6.412;2022-07-17T08:35:25;8.80;;;1.20;;
51485;SDS011;37565;51.352;6.412;2022-07-17T08:37:53;1.92;;;0.98;;
51485;SDS011;37565;51.352;6.412;2022-07-17T08:40:23;5.00;;;0.95;;
51485;SDS011;37565;51.352;6.412;2022-07-17T08:42:54;3.72;;;1.08;;
51485;SDS011;37565;51.352;6.412;2022-07-17T08:45:23;7.55;;;1.05;;
51485;SDS011;37565;51.352;6.412;2022-07-17T08:47:54;2.33;;;0.80;;
51485;SDS011;37565;51.352;6.412;2022-07-17T08:50:24;3.30;;;1.15;;
51485;SDS011;37565;51.352;6.412;2022-07-17T08:52:53;2.33;;;0.80;;
51485;SDS011;37565;51.352;6.412;2022-07-17T08:55:21;1.95;;;1.13;;
51485;SDS011;37565;51.352;6.412;2022-07-17T08:57:49;4.78;;;0.90;;
51485;SDS011;37565;51.352;6.412;2022-07-17T09:00:18;3.50;;;1.00;;
51485;SDS011;37565;51.352;6.412;2022-07-17T09:02:54;7.32;;;0.98;;
51485;SDS011;37565;51.352;6.412;2022-07-17T09:05:36;5.75;;;0.98;;
51485;SDS011;37565;51.352;6.412;2022-07-17T09:08:07;1.05;;;0.75;;
51485;SDS011;37565;51.352;6.412;2022-07-17T09:10:36;3.35;;;0.90;;
51485;SDS011;37565;51.352;6.412;2022-07-17T09:13:14;2.85;;;0.70;;
51485;SDS011;37565;51.352;6.412;2022-07-17T09:15:44;3.58;;;0.95;;
51485;SDS011;37565;51.352;6.412;2022-07-17T09:18:14;3.58;;;0.80;;
51485;SDS011;37565;51.352;6.412;2022-07-17T09:20:44;4.78;;;0.85;;
51485;SDS011;37565;51.352;6.412;2022-07-17T09:23:13;2.47;;;0.95;;
51485;SDS011;37565;51.352;6.412;2022-07-17T09:25:42;5.78;;;1.40;;
51485;SDS011;37565;51.352;6.412;2022-07-17T09:28:12;5.68;;;0.88;;
51485;SDS011;37565;51.352;6.412;2022-07-17T09:30:42;1.58;;;0.70;;
51485;SDS011;37565;51.352;6.412;2022-07-17T09:33:12;2.33;;;0.85;;
51485;SDS011;37565;51.352;6.412;2022-07-17T09:35:44;4.50;;;0.88;;
51485;SDS011;37565;51.352;6.412;2022-07-17T09:38:29;3.40;;;0.93;;
51485;SDS011;37565;51.352;6.412;2022-07-17T09:41:01;4.47;;;0.93;;
51485;SDS011;37565;51.352;6.412;2022-07-17T09:43:42;2.97;;;0.70;;
51485;SDS011;37565;51.352;6.412;2022-07-17T09:46:16;1.90;;;0.80;;
51485;SDS011;37565;51.352;6.412;2022-07-17T09:48:48;2.30;;;1.05;;
51485;SDS011;37565;51.352;6.412;2022-07-17T09:51:19;3.15;;;0.82;;
51485;SDS011;37565;51.352;6.412;2022-07-17T09:53:50;2.45;;;0.82;;
51485;SDS011;37565;51.352;6.412;2022-07-17T09:56:20;3.50;;;1.10;;
51485;SDS011;37565;51.352;6.412;2022-07-17T09:58:50;3.47;;;1.05;;
51485;SDS011;37565;51.352;6.412;2022-07-17T10:01:20;1.05;;;0.57;;
51485;SDS011;37565;51.352;6.412;2022-07-17T10:03:50;3.88;;;0.90;;
51485;SDS011;37565;51.352;6.412;2022-07-17T10:06:20;4.10;;;0.77;;
51485;SDS011;37565;51.352;6.412;2022-07-17T10:08:50;4.60;;;0.90;;
51485;SDS011;37565;51.352;6.412;2022-07-17T10:11:22;3.35;;;1.00;;
51485;SDS011;37565;51.352;6.412;2022-07-17T10:13:52;7.35;;;0.90;;
51485;SDS011;37565;51.352;6.412;2022-07-17T10:16:26;3.30;;;0.73;;
51485;SDS011;37565;51.352;6.412;2022-07-17T10:18:58;3.65;;;0.82;;
51485;SDS011;37565;51.352;6.412;2022-07-17T10:21:29;0.93;;;0.68;;
51485;SDS011;37565;51.352;6.412;2022-07-17T10:24:08;4.78;;;0.80;;
51485;SDS011;37565;51.352;6.412;2022-07-17T10:26:41;1.45;;;0.95;;
51485;SDS011;37565;51.352;6.412;2022-07-17T10:29:25;1.08;;;0.60;;
51485;SDS011;37565;51.352;6.412;2022-07-17T10:31:55;3.17;;;0.88;;
51485;SDS011;37565;51.352;6.412;2022-07-17T10:34:37;2.78;;;0.70;;
51485;SDS011;37565;51.352;6.412;2022-07-17T10:37:16;1.58;;;0.80;;
51485;SDS011;37565;51.352;6.412;2022-07-17T10:39:55;1.73;;;0.60;;
51485;SDS011;37565;51.352;6.412;2022-07-17T10:42:36;1.03;;;0.80;;
51485;SDS011;37565;51.352;6.412;2022-07-17T10:45:13;4.53;;;0.80;;
51485;SDS011;37565;51.352;6.412;2022-07-17T10:47:46;0.63;;;0.55;;
51485;SDS011;37565;51.352;6.412;2022-07-17T10:50:19;3.97;;;1.02;;
51485;SDS011;37565;51.352;6.412;2022-07-17T10:55:37;1.83;;;0.65;;
51485;SDS011;37565;51.352;6.412;2022-07-17T10:58:13;5.88;;;0.73;;
51485;SDS011;37565;51.352;6.412;2022-07-17T11:00:59;6.03;;;0.80;;
51485;SDS011;37565;51.352;6.412;2022-07-17T11:03:29;2.05;;;0.80;;
51485;SDS011;37565;51.352;6.412;2022-07-17T11:06:07;2.47;;;0.75;;
51485;SDS011;37565;51.352;6.412;2022-07-17T11:08:40;6.28;;;0.90;;
51485;SDS011;37565;51.352;6.412;2022-07-17T11:11:09;2.75;;;1.40;;
51485;SDS011;37565;51.352;6.412;2022-07-17T11:13:43;2.80;;;0.93;;
51485;SDS011;37565;51.352;6.412;2022-07-17T11:16:12;1.42;;;0.82;;
51485;SDS011;37565;51.352;6.412;2022-07-17T11:18:50;1.83;;;1.00;;
51485;SDS011;37565;51.352;6.412;2022-07-17T11:21:19;5.57;;;1.65;;
51485;SDS011;37565;51.352;6.412;2022-07-17T11:23:52;2.70;;;1.13;;
51485;SDS011;37565;51.352;6.412;2022-07-17T11:26:21;3.47;;;0.88;;
51485;SDS011;37565;51.352;6.412;2022-07-17T11:28:51;6.63;;;1.30;;
51485;SDS011;37565;51.352;6.412;2022-07-17T11:31:27;4.28;;;0.80;;
51485;SDS011;37565;51.352;6.412;2022-07-17T11:33:57;5.97;;;1.13;;
51485;SDS011;37565;51.352;6.412;2022-07-17T11:36:28;4.47;;;1.10;;
51485;SDS011;37565;51.352;6.412;2022-07-17T11:38:59;2.45;;;1.10;;
51485;SDS011;37565;51.352;6.412;2022-07-17T11:41:33;4.97;;;1.30;;
51485;SDS011;37565;51.352;6.412;2022-07-17T11:44:02;1.00;;;0.80;;
51485;SDS011;37565;51.352;6.412;2022-07-17T11:46:31;4.47;;;1.00;;
51485;SDS011;37565;51.352;6.412;2022-07-17T11:49:00;4.90;;;1.25;;
51485;SDS011;37565;51.352;6.412;2022-07-17T11:51:34;5.75;;;1.00;;
51485;SDS011;37565;51.352;6.412;2022-07-17T11:54:04;8.48;;;1.63;;
51485;SDS011;37565;51.352;6.412;2022-07-17T11:56:33;5.53;;;1.10;;
51485;SDS011;37565;51.352;6.412;2022-07-17T11:59:02;2.60;;;0.93;;
51485;SDS011;37565;51.352;6.412;2022-07-17T12:01:37;3.75;;;0.90;;
51485;SDS011;37565;51.352;6.412;2022-07-17T12:04:07;3.10;;;0.85;;
51485;SDS011;37565;51.352;6.412;2022-07-17T12:06:43;3.63;;;1.10;;
51485;SDS011;37565;51.352;6.412;2022-07-17T12:09:13;1.92;;;1.00;;
51485;SDS011;37565;51.352;6.412;2022-07-17T12:11:45;2.75;;;0.70;;
51485;SDS011;37565;51.352;6.412;2022-07-17T12:14:13;2.00;;;0.93;;
51485;SDS011;37565;51.352;6.412;2022-07-17T12:16:42;3.42;;;1.00;;
51485;SDS011;37565;51.352;6.412;2022-07-17T12:19:13;5.25;;;1.00;;
51485;SDS011;37565;51.352;6.412;2022-07-17T12:21:54;1.92;;;0.85;;
51485;SDS011;37565;51.352;6.412;2022-07-17T12:24:26;2.33;;;1.00;;
51485;SDS011;37565;51.352;6.412;2022-07-17T12:26:56;3.25;;;1.20;;
51485;SDS011;37565;51.352;6.412;2022-07-17T12:29:26;3.65;;;1.20;;
51485;SDS011;37565;51.352;6.412;2022-07-17T12:32:04;2.25;;;1.13;;
51485;SDS011;37565;51.352;6.412;2022-07-17T12:34:34;1.70;;;0.90;;
51485;SDS011;37565;51.352;6.412;2022-07-17T12:37:05;1.20;;;0.77;;
51485;SDS011;37565;51.352;6.412;2022-07-17T12:39:33;2.47;;;0.90;;
51485;SDS011;37565;51.352;6.412;2022-07-17T12:42:01;1.77;;;1.00;;
51485;SDS011;37565;51.352;6.412;2022-07-17T12:44:30;5.57;;;1.00;;
51485;SDS011;37565;51.352;6.412;2022-07-17T12:46:58;1.73;;;0.90;;
51485;SDS011;37565;51.352;6.412;2022-07-17T12:49:26;2.17;;;0.82;;
51485;SDS011;37565;51.352;6.412;2022-07-17T12:51:54;3.05;;;1.13;;
51485;SDS011;37565;51.352;6.412;2022-07-17T12:54:24;1.20;;;0.50;;
51485;SDS011;37565;51.352;6.412;2022-07-17T12:56:52;2.28;;;0.70;;
51485;SDS011;37565;51.352;6.412;2022-07-17T12:59:21;2.67;;;0.90;;
51485;SDS011;37565;51.352;6.412;2022-07-17T13:01:49;2.33;;;0.77;;
51485;SDS011;37565;51.352;6.412;2022-07-17T13:04:18;3.92;;;1.05;;
51485;SDS011;37565;51.352;6.412;2022-07-17T13:06:47;1.48;;;0.63;;
51485;SDS011;37565;51.352;6.412;2022-07-17T13:09:15;0.85;;;0.70;;
51485;SDS011;37565;51.352;6.412;2022-07-17T13:11:46;2.47;;;1.00;;
51485;SDS011;37565;51.352;6.412;2022-07-17T13:14:15;2.05;;;0.75;;
51485;SDS011;37565;51.352;6.412;2022-07-17T13:16:43;1.75;;;0.85;;
51485;SDS011;37565;51.352;6.412;2022-07-17T13:19:11;1.83;;;1.00;;
51485;SDS011;37565;51.352;6.412;2022-07-17T13:21:39;3.50;;;0.65;;
51485;SDS011;37565;51.352;6.412;2022-07-17T13:24:07;1.50;;;0.70;;
51485;SDS011;37565;51.352;6.412;2022-07-17T13:26:35;1.58;;;1.20;;
51485;SDS011;37565;51.352;6.412;2022-07-17T13:29:05;2.92;;;0.77;;
51485;SDS011;37565;51.352;6.412;2022-07-17T13:31:35;2.35;;;0.93;;
51485;SDS011;37565;51.352;6.412;2022-07-17T13:34:06;1.13;;;0.70;;
51485;SDS011;37565;51.352;6.412;2022-07-17T13:36:34;2.22;;;0.90;;
51485;SDS011;37565;51.352;6.412;2022-07-17T13:39:02;2.47;;;1.00;;
51485;SDS011;37565;51.352;6.412;2022-07-17T13:41:31;2.15;;;0.80;;
51485;SDS011;37565;51.352;6.412;2022-07-17T13:43:59;1.17;;;0.82;;
51485;SDS011;37565;51.352;6.412;2022-07-17T13:46:37;1.38;;;0.80;;
51485;SDS011;37565;51.352;6.412;2022-07-17T13:49:05;11.07;;;1.00;;
51485;SDS011;37565;51.352;6.412;2022-07-17T13:51:34;3.15;;;0.80;;
51485;SDS011;37565;51.352;6.412;2022-07-17T13:54:02;8.50;;;1.00;;
51485;SDS011;37565;51.352;6.412;2022-07-17T13:56:30;9.85;;;1.20;;
51485;SDS011;37565;51.352;6.412;2022-07-17T13:58:58;3.28;;;0.95;;
51485;SDS011;37565;51.352;6.412;2022-07-17T14:01:27;5.68;;;1.00;;
51485;SDS011;37565;51.352;6.412;2022-07-17T14:03:57;3.63;;;0.70;;
51485;SDS011;37565;51.352;6.412;2022-07-17T14:06:25;2.60;;;0.77;;
51485;SDS011;37565;51.352;6.412;2022-07-17T14:08:53;17.73;;;1.15;;
51485;SDS011;37565;51.352;6.412;2022-07-17T14:11:21;3.03;;;0.93;;
51485;SDS011;37565;51.352;6.412;2022-07-17T14:13:49;1.42;;;0.70;;
51485;SDS011;37565;51.352;6.412;2022-07-17T14:16:18;2.83;;;0.90;;
51485;SDS011;37565;51.352;6.412;2022-07-17T14:18:46;3.78;;;0.90;;
51485;SDS011;37565;51.352;6.412;2022-07-17T14:21:31;1.70;;;0.63;;
51485;SDS011;37565;51.352;6.412;2022-07-17T14:24:00;2.42;;;0.90;;
51485;SDS011;37565;51.352;6.412;2022-07-17T14:26:29;3.83;;;1.08;;
51485;SDS011;37565;51.352;6.412;2022-07-17T14:28:57;1.25;;;0.77;;
51485;SDS011;37565;51.352;6.412;2022-07-17T14:31:25;0.80;;;0.60;;
51485;SDS011;37565;51.352;6.412;2022-07-17T14:33:53;2.05;;;0.73;;
51485;SDS011;37565;51.352;6.412;2022-07-17T14:36:22;4.18;;;0.73;;
51485;SDS011;37565;51.352;6.412;2022-07-17T14:38:51;4.60;;;0.85;;
51485;SDS011;37565;51.352;6.412;2022-07-17T14:41:19;2.28;;;0.80;;
51485;SDS011;37565;51.352;6.412;2022-07-17T14:43:47;4.93;;;1.60;;
51485;SDS011;37565;51.352;6.412;2022-07-17T14:46:16;3.92;;;0.90;;
51485;SDS011;37565;51.352;6.412;2022-07-17T14:48:44;0.93;;;0.80;;
51485;SDS011;37565;51.352;6.412;2022-07-17T14:51:12;3.85;;;0.98;;
51485;SDS011;37565;51.352;6.412;2022-07-17T14:53:42;2.78;;;0.82;;
51485;SDS011;37565;51.352;6.412;2022-07-17T14:56:12;2.42;;;0.73;;
51485;SDS011;37565;51.352;6.412;2022-07-17T14:58:40;2.65;;;0.80;;
51485;SDS011;37565;51.352;6.412;2022-07-17T15:01:08;4.43;;;1.08;;
51485;SDS011;37565;51.352;6.412;2022-07-17T15:03:36;1.45;;;0.55;;
51485;SDS011;37565;51.352;6.412;2022-07-17T15:06:04;2.13;;;0.70;;